createdAt,value
2023-05-18T00:00:23.718Z,6.40
2023-05-18T00:02:52.996Z,6.40
2023-05-18T00:05:23.473Z,6.40
2023-05-18T00:07:53.483Z,6.50
2023-05-18T00:10:22.713Z,6.50
2023-05-18T00:12:51.981Z,6.60
2023-05-18T00:15:22.166Z,6.50
2023-05-18T00:17:53.567Z,6.40
2023-05-18T00:20:26.888Z,6.30
2023-05-18T00:22:55.946Z,6.20
2023-05-18T00:25:25.289Z,6.00
2023-05-18T00:27:54.450Z,5.90
2023-05-18T00:30:24.820Z,5.80
2023-05-18T00:32:53.759Z,5.70
2023-05-18T00:35:24.477Z,5.60
2023-05-18T00:37:53.452Z,5.60
2023-05-18T00:40:24.355Z,5.50
2023-05-18T00:42:53.397Z,5.50
2023-05-18T00:45:22.432Z,5.50
2023-05-18T00:47:51.744Z,5.50
2023-05-18T00:50:20.934Z,5.60
2023-05-18T00:52:51.721Z,5.60
2023-05-18T00:55:20.819Z,5.60
2023-05-18T00:57:50.608Z,5.60
2023-05-18T01:00:20.995Z,5.50
2023-05-18T01:02:51.591Z,5.50
2023-05-18T01:05:22.515Z,5.50
2023-05-18T01:07:53.186Z,5.40
2023-05-18T01:10:25.361Z,5.50
2023-05-18T01:13:02.793Z,5.50
2023-05-18T01:15:36.846Z,5.50
2023-05-18T01:18:15.430Z,5.60
2023-05-18T01:20:50.862Z,5.70
2023-05-18T01:23:47.479Z,5.70
2023-05-18T01:26:24.934Z,5.70
2023-05-18T01:28:55.861Z,5.70
2023-05-18T01:31:25.463Z,5.70
2023-05-18T01:33:54.570Z,5.60
2023-05-18T01:36:23.598Z,5.60
2023-05-18T01:38:54.135Z,5.50
2023-05-18T01:41:27.573Z,5.50
2023-05-18T01:44:03.163Z,5.50
2023-05-18T01:46:42.170Z,5.50
2023-05-18T01:49:18.453Z,5.40
2023-05-18T01:51:50.093Z,5.40
2023-05-18T01:54:22.023Z,5.30
2023-05-18T01:56:56.323Z,5.30
2023-05-18T01:59:26.781Z,5.30
2023-05-18T02:01:59.864Z,5.30
2023-05-18T02:04:29.518Z,5.30
2023-05-18T02:06:58.628Z,5.30
2023-05-18T02:09:27.563Z,5.30
2023-05-18T02:11:57.994Z,5.40
2023-05-18T02:14:28.375Z,5.40
2023-05-18T02:16:57.838Z,5.40
2023-05-18T02:19:27.039Z,5.50
2023-05-18T02:21:56.499Z,5.50
2023-05-18T02:24:25.682Z,5.50
2023-05-18T02:26:54.680Z,5.50
2023-05-18T02:29:25.065Z,5.50
2023-05-18T02:31:54.265Z,5.50
2023-05-18T02:34:24.920Z,5.50
2023-05-18T02:36:53.877Z,5.50
2023-05-18T02:39:22.686Z,5.50
2023-05-18T02:41:51.648Z,5.50
2023-05-18T02:44:21.336Z,5.50
2023-05-18T02:46:52.591Z,5.50
2023-05-18T02:49:21.532Z,5.50
2023-05-18T02:51:50.425Z,5.50
2023-05-18T02:54:19.588Z,5.50
2023-05-18T02:56:49.408Z,5.30
2023-05-18T02:59:33.034Z,5.20
2023-05-18T03:02:03.705Z,5.10
2023-05-18T03:04:32.858Z,5.00
2023-05-18T03:07:03.581Z,5.00
2023-05-18T03:09:32.716Z,4.90
2023-05-18T03:12:01.745Z,4.90
2023-05-18T03:14:31.067Z,4.80
2023-05-18T03:17:00.699Z,4.70
2023-05-18T03:19:31.269Z,4.60
2023-05-18T03:22:01.020Z,4.50
2023-05-18T03:24:30.605Z,4.40
2023-05-18T03:27:02.577Z,4.30
2023-05-18T03:29:31.779Z,4.30
2023-05-18T03:32:04.172Z,4.20
2023-05-18T03:34:35.308Z,4.10
2023-05-18T03:37:04.419Z,4.00
2023-05-18T03:39:34.720Z,4.00
2023-05-18T03:42:03.755Z,3.90
2023-05-18T03:44:32.884Z,3.90
2023-05-18T03:47:01.927Z,3.80
2023-05-18T03:49:31.077Z,3.80
2023-05-18T03:52:02.242Z,3.80
2023-05-18T03:54:32.976Z,3.90
2023-05-18T03:57:02.321Z,3.90
2023-05-18T03:59:32.097Z,3.90
2023-05-18T04:02:01.227Z,4.00
2023-05-18T04:04:31.182Z,4.00
2023-05-18T04:07:06.314Z,4.00
2023-05-18T04:09:35.986Z,4.10
2023-05-18T04:12:06.872Z,4.20
2023-05-18T04:14:35.935Z,4.30
2023-05-18T04:17:06.094Z,4.40
2023-05-18T04:19:36.052Z,4.50
2023-05-18T04:22:11.419Z,4.60
2023-05-18T04:24:41.608Z,4.70
2023-05-18T04:27:12.403Z,4.70
2023-05-18T04:29:44.120Z,4.80
2023-05-18T04:32:13.316Z,4.90
2023-05-18T04:34:42.762Z,5.00
2023-05-18T04:37:13.890Z,5.20
2023-05-18T04:39:43.653Z,5.30
2023-05-18T04:42:18.732Z,5.40
2023-05-18T04:44:52.627Z,5.60
2023-05-18T04:47:25.301Z,6.00
2023-05-18T04:49:54.655Z,6.70
2023-05-18T04:52:25.171Z,7.50
2023-05-18T04:54:54.355Z,8.20
2023-05-18T04:57:23.473Z,9.10
2023-05-18T04:59:53.540Z,9.70
2023-05-18T05:02:24.412Z,10.40
2023-05-18T05:04:53.730Z,11.00
2023-05-18T05:07:26.710Z,11.50
2023-05-18T05:09:58.308Z,12.00
2023-05-18T05:12:27.504Z,12.40
2023-05-18T05:14:56.599Z,12.80
2023-05-18T05:17:26.954Z,13.10
2023-05-18T05:19:55.919Z,13.40
2023-05-18T05:22:32.402Z,13.60
2023-05-18T05:25:02.200Z,13.80
2023-05-18T05:27:31.911Z,14.10
2023-05-18T05:30:01.134Z,14.30
2023-05-18T05:32:31.022Z,14.40
2023-05-18T05:35:00.339Z,14.50
2023-05-18T05:37:29.791Z,14.60
2023-05-18T05:40:00.370Z,14.70
2023-05-18T05:42:31.216Z,14.70
2023-05-18T05:45:02.607Z,14.70
2023-05-18T05:47:32.127Z,14.60
2023-05-18T05:50:01.899Z,14.50
2023-05-18T05:52:35.386Z,14.50
2023-05-18T05:55:08.172Z,14.50
2023-05-18T05:57:40.041Z,14.50
2023-05-18T06:00:11.552Z,14.50
2023-05-18T06:03:04.226Z,14.60
2023-05-18T06:05:43.162Z,14.60
2023-05-18T06:08:18.273Z,14.50
2023-05-18T06:10:50.008Z,14.40
2023-05-18T06:13:20.613Z,14.30
2023-05-18T06:15:57.424Z,14.20
2023-05-18T06:18:26.675Z,14.10
2023-05-18T06:21:42.579Z,14.10
2023-05-18T06:24:32.272Z,14.00
2023-05-18T06:27:32.559Z,14.00
2023-05-18T06:30:19.633Z,13.80
2023-05-18T06:33:02.679Z,13.50
2023-05-18T06:35:31.631Z,13.30
2023-05-18T06:38:00.528Z,13.30
2023-05-18T06:40:30.230Z,13.20
2023-05-18T06:43:01.134Z,13.10
2023-05-18T06:45:52.888Z,13.00
2023-05-18T06:48:31.767Z,12.90
2023-05-18T06:51:00.815Z,12.90
2023-05-18T06:53:31.930Z,12.90
2023-05-18T06:56:01.955Z,12.80
2023-05-18T06:58:33.131Z,12.60
2023-05-18T07:01:05.348Z,12.60
2023-05-18T07:03:34.874Z,12.70
2023-05-18T07:06:04.799Z,12.60
2023-05-18T07:08:34.022Z,12.70
2023-05-18T07:11:03.605Z,12.70
2023-05-18T07:13:34.560Z,12.80
2023-05-18T07:16:03.619Z,12.90
2023-05-18T07:18:37.267Z,12.80
2023-05-18T07:21:06.634Z,12.90
2023-05-18T07:23:35.542Z,12.90
2023-05-18T07:26:04.310Z,13.00
2023-05-18T07:28:34.555Z,13.10
2023-05-18T07:31:03.581Z,13.20
2023-05-18T07:33:33.089Z,13.30
2023-05-18T07:37:16.610Z,13.30
2023-05-18T07:39:46.620Z,13.40
2023-05-18T07:42:15.177Z,13.50
2023-05-18T07:44:49.518Z,13.40
2023-05-18T07:47:19.152Z,13.40
2023-05-18T07:49:48.152Z,13.50
2023-05-18T07:52:16.918Z,13.60
2023-05-18T07:54:45.595Z,13.60
2023-05-18T07:57:14.193Z,13.70
2023-05-18T07:59:43.090Z,13.80
2023-05-18T08:02:13.548Z,13.90
2023-05-18T08:04:42.637Z,13.90
2023-05-18T08:07:12.872Z,13.90
2023-05-18T08:09:42.037Z,13.90
2023-05-18T08:12:10.964Z,13.80
2023-05-18T08:14:39.658Z,13.90
2023-05-18T08:17:08.660Z,13.90
2023-05-18T08:19:41.738Z,14.10
2023-05-18T08:22:11.415Z,14.30
2023-05-18T08:24:40.202Z,14.50
2023-05-18T08:27:11.416Z,14.40
2023-05-18T08:29:40.387Z,14.40
2023-05-18T08:32:09.532Z,14.50
2023-05-18T08:34:39.737Z,14.40
2023-05-18T08:37:08.422Z,14.60
2023-05-18T08:39:38.209Z,14.80
2023-05-18T08:42:13.635Z,15.00
2023-05-18T08:44:50.463Z,15.10
2023-05-18T08:47:26.124Z,15.30
2023-05-18T08:49:58.298Z,15.60
2023-05-18T08:52:28.898Z,16.00
2023-05-18T08:55:00.348Z,16.40
2023-05-18T08:57:31.772Z,16.60
2023-05-18T09:00:04.702Z,16.80
2023-05-18T09:02:34.947Z,16.70
2023-05-18T09:05:05.872Z,17.00
2023-05-18T09:07:35.533Z,17.20
2023-05-18T09:10:05.748Z,17.60
2023-05-18T09:12:36.323Z,17.90
2023-05-18T09:15:05.714Z,18.30
2023-05-18T09:17:34.463Z,18.60
2023-05-18T09:20:07.198Z,18.40
2023-05-18T09:22:36.605Z,18.20
2023-05-18T09:25:07.168Z,18.20
2023-05-18T09:27:35.833Z,18.10
2023-05-18T09:30:05.083Z,18.30
2023-05-18T09:32:37.671Z,18.40
2023-05-18T09:35:09.230Z,18.40
2023-05-18T09:37:38.141Z,18.60
2023-05-18T09:40:08.417Z,18.70
2023-05-18T09:42:38.537Z,18.90
2023-05-18T09:45:17.848Z,19.00
2023-05-18T09:47:46.710Z,18.70
2023-05-18T09:50:19.962Z,18.70
2023-05-18T09:52:49.552Z,19.00
2023-05-18T09:55:19.300Z,19.30
2023-05-18T09:57:50.150Z,19.70
2023-05-18T10:00:22.199Z,20.20
2023-05-18T10:02:53.067Z,20.30
2023-05-18T10:05:26.690Z,20.10
2023-05-18T10:07:59.342Z,19.50
2023-05-18T10:10:29.851Z,19.30
2023-05-18T10:12:59.069Z,19.50
2023-05-18T10:15:28.408Z,19.80
2023-05-18T10:17:58.689Z,19.80
2023-05-18T10:20:29.043Z,19.90
2023-05-18T10:23:00.034Z,20.30
2023-05-18T10:25:30.468Z,20.60
2023-05-18T10:28:11.519Z,20.70
2023-05-18T10:30:42.570Z,20.10
2023-05-18T10:33:24.578Z,18.90
2023-05-18T10:35:59.730Z,18.20
2023-05-18T10:38:29.880Z,17.50
2023-05-18T10:41:00.459Z,17.30
2023-05-18T10:43:30.184Z,17.40
2023-05-18T10:46:02.205Z,17.90
2023-05-18T10:48:31.843Z,18.40
2023-05-18T10:51:05.622Z,18.80
2023-05-18T10:53:36.755Z,19.30
2023-05-18T10:56:08.007Z,19.60
2023-05-18T10:58:38.444Z,19.70
2023-05-18T11:01:10.897Z,19.30
2023-05-18T11:03:41.117Z,19.30
2023-05-18T11:06:12.947Z,19.50
2023-05-18T11:08:48.049Z,19.80
2023-05-18T11:11:19.323Z,20.20
2023-05-18T11:13:51.654Z,20.60
2023-05-18T11:16:21.284Z,20.80
2023-05-18T11:18:51.549Z,21.00
2023-05-18T11:21:35.824Z,21.10
2023-05-18T11:24:24.987Z,20.80
2023-05-18T11:26:55.304Z,20.30
2023-05-18T11:29:26.145Z,19.40
2023-05-18T11:31:56.489Z,18.60
2023-05-18T11:34:46.089Z,18.20
2023-05-18T11:37:17.517Z,18.00
2023-05-18T11:40:00.048Z,18.20
2023-05-18T11:42:35.404Z,18.40
2023-05-18T11:45:11.474Z,18.60
2023-05-18T11:47:41.621Z,18.40
2023-05-18T11:50:13.029Z,18.40
2023-05-18T11:52:53.809Z,18.60
2023-05-18T11:55:23.010Z,19.00
2023-05-18T11:57:53.568Z,19.40
2023-05-18T12:00:22.797Z,19.70
2023-05-18T12:02:52.934Z,20.00
2023-05-18T12:05:22.672Z,20.30
2023-05-18T12:07:55.388Z,20.40
2023-05-18T12:10:24.434Z,20.60
2023-05-18T12:12:54.483Z,20.50
2023-05-18T12:15:24.801Z,20.60
2023-05-18T12:17:53.898Z,20.60
2023-05-18T12:20:25.225Z,20.70
2023-05-18T12:22:57.368Z,20.70
2023-05-18T12:25:28.287Z,20.40
2023-05-18T12:27:57.972Z,19.70
2023-05-18T12:30:35.531Z,19.50
2023-05-18T12:33:05.103Z,19.70
2023-05-18T12:35:34.265Z,20.00
2023-05-18T12:38:04.808Z,20.30
2023-05-18T12:40:44.886Z,20.60
2023-05-18T12:43:14.441Z,20.90
2023-05-18T12:45:46.119Z,20.80
2023-05-18T12:48:15.337Z,20.70
2023-05-18T12:50:49.041Z,20.70
2023-05-18T12:53:19.848Z,20.90
2023-05-18T12:55:58.310Z,21.10
2023-05-18T12:58:27.275Z,21.10
2023-05-18T13:00:56.308Z,20.90
2023-05-18T13:03:25.205Z,20.40
2023-05-18T13:06:05.002Z,20.10
2023-05-18T13:08:36.316Z,20.00
2023-05-18T13:11:13.446Z,20.00
2023-05-18T13:14:01.281Z,19.90
2023-05-18T13:16:30.865Z,19.80
2023-05-18T13:19:01.533Z,19.80
2023-05-18T13:21:31.006Z,19.90
2023-05-18T13:24:01.289Z,20.10
2023-05-18T13:26:30.345Z,20.10
2023-05-18T13:29:00.407Z,19.80
2023-05-18T13:31:30.706Z,19.60
2023-05-18T13:33:59.477Z,19.50
2023-05-18T13:36:29.804Z,19.40
2023-05-18T13:38:58.772Z,19.40
2023-05-18T13:41:30.245Z,19.60
2023-05-18T13:43:58.995Z,20.00
2023-05-18T13:46:27.946Z,20.40
2023-05-18T13:48:56.784Z,20.40
2023-05-18T13:51:26.010Z,20.10
2023-05-18T13:53:54.789Z,19.50
2023-05-18T13:56:23.887Z,19.10
2023-05-18T13:58:54.283Z,18.90
2023-05-18T14:01:23.601Z,18.80
2023-05-18T14:03:53.148Z,18.70
2023-05-18T14:06:23.408Z,18.90
2023-05-18T14:08:55.068Z,18.90
2023-05-18T14:11:23.867Z,18.60
2023-05-18T14:13:54.206Z,18.40
2023-05-18T14:16:23.142Z,18.50
2023-05-18T14:18:52.087Z,18.60
2023-05-18T14:21:21.048Z,18.70
2023-05-18T14:23:49.852Z,18.80
2023-05-18T14:26:18.733Z,19.00
2023-05-18T14:28:47.678Z,19.20
2023-05-18T14:31:17.941Z,19.30
2023-05-18T14:33:46.902Z,19.50
2023-05-18T14:36:15.678Z,19.60
2023-05-18T14:38:46.334Z,19.60
2023-05-18T14:41:15.254Z,19.70
2023-05-18T14:43:44.117Z,19.70
2023-05-18T14:46:12.760Z,19.90
2023-05-18T14:48:42.942Z,20.00
2023-05-18T14:51:11.796Z,20.10
2023-05-18T14:53:40.528Z,20.20
2023-05-18T14:56:09.808Z,20.20
2023-05-18T14:58:38.457Z,20.30
2023-05-18T15:01:07.349Z,20.20
2023-05-18T15:03:36.142Z,20.00
2023-05-18T15:06:06.676Z,19.80
2023-05-18T15:08:35.666Z,19.60
2023-05-18T15:11:04.448Z,19.50
2023-05-18T15:13:33.295Z,19.30
2023-05-18T15:16:02.092Z,19.00
2023-05-18T15:18:30.938Z,18.90
2023-05-18T15:20:59.917Z,18.90
2023-05-18T15:23:30.309Z,18.90
2023-05-18T15:25:59.255Z,18.90
2023-05-18T15:28:28.049Z,19.00
2023-05-18T15:30:57.131Z,19.00
2023-05-18T15:33:26.029Z,19.00
2023-05-18T15:35:54.848Z,19.10
2023-05-18T15:38:23.608Z,19.20
2023-05-18T15:40:53.814Z,19.10
2023-05-18T15:43:24.166Z,19.10
2023-05-18T15:45:53.072Z,19.20
2023-05-18T15:48:21.954Z,19.40
2023-05-18T15:50:51.061Z,19.70
2023-05-18T15:53:19.795Z,20.10
2023-05-18T15:55:50.855Z,20.40
2023-05-18T15:58:21.372Z,20.60
2023-05-18T16:00:50.209Z,20.90
2023-05-18T16:03:19.348Z,21.10
2023-05-18T16:05:48.456Z,21.10
2023-05-18T16:08:17.266Z,21.10
2023-05-18T16:10:45.923Z,21.10
2023-05-18T16:13:14.976Z,21.10
2023-05-18T16:15:46.263Z,21.20
2023-05-18T16:18:15.292Z,21.50
2023-05-18T16:20:44.052Z,21.70
2023-05-18T16:23:12.882Z,21.70
2023-05-18T16:25:41.776Z,21.80
2023-05-18T16:30:39.228Z,21.70
2023-05-18T16:33:09.589Z,21.50
2023-05-18T16:35:38.482Z,21.40
2023-05-18T16:38:07.505Z,21.30
2023-05-18T16:40:36.213Z,21.20
2023-05-18T16:43:04.984Z,20.90
2023-05-18T16:45:33.799Z,20.60
2023-05-18T16:48:03.946Z,20.70
2023-05-18T16:50:34.310Z,21.00
2023-05-18T16:53:03.186Z,21.70
2023-05-18T16:55:32.098Z,22.70
2023-05-18T16:58:00.819Z,23.80
2023-05-18T17:00:29.789Z,24.70
2023-05-18T17:02:58.758Z,25.70
2023-05-18T17:05:27.512Z,26.40
2023-05-18T17:07:57.770Z,26.70
2023-05-18T17:10:26.561Z,26.70
2023-05-18T17:12:55.367Z,26.50
2023-05-18T17:15:24.085Z,26.10
2023-05-18T17:17:53.118Z,25.80
2023-05-18T17:20:21.923Z,25.80
2023-05-18T17:22:50.956Z,26.00
2023-05-18T17:25:21.484Z,26.80
2023-05-18T17:27:50.314Z,27.10
2023-05-18T17:30:18.983Z,26.80
2023-05-18T17:32:50.690Z,25.90
2023-05-18T17:35:19.687Z,24.70
2023-05-18T17:37:48.944Z,23.90
2023-05-18T17:40:17.620Z,23.40
2023-05-18T17:42:47.905Z,23.20
2023-05-18T17:45:18.186Z,23.20
2023-05-18T17:47:47.352Z,23.20
2023-05-18T17:50:16.036Z,23.20
2023-05-18T17:52:44.810Z,22.90
2023-05-18T17:55:15.158Z,22.60
2023-05-18T17:57:45.397Z,21.70
2023-05-18T18:00:17.700Z,20.80
2023-05-18T18:02:46.538Z,20.20
2023-05-18T18:05:15.399Z,19.50
2023-05-18T18:07:44.195Z,18.90
2023-05-18T18:10:12.875Z,18.50
2023-05-18T18:12:41.428Z,18.30
2023-05-18T18:15:11.387Z,17.80
2023-05-18T18:17:41.804Z,17.30
2023-05-18T18:20:11.292Z,16.80
2023-05-18T18:22:40.162Z,16.50
2023-05-18T18:25:09.367Z,16.20
2023-05-18T18:27:38.017Z,15.90
2023-05-18T18:30:08.125Z,15.70
2023-05-18T18:32:36.918Z,15.50
2023-05-18T18:35:08.011Z,15.30
2023-05-18T18:37:37.134Z,15.20
2023-05-18T18:40:07.926Z,15.10
2023-05-18T18:42:36.806Z,14.90
2023-05-18T18:45:06.431Z,14.80
2023-05-18T18:47:35.401Z,14.60
2023-05-18T18:50:05.414Z,14.60
2023-05-18T18:52:36.951Z,14.40
2023-05-18T18:55:06.565Z,14.30
2023-05-18T18:57:35.548Z,14.20
2023-05-18T19:00:06.991Z,14.10
2023-05-18T19:02:35.765Z,14.00
2023-05-18T19:05:05.540Z,13.90
2023-05-18T19:07:34.631Z,13.70
2023-05-18T19:10:05.632Z,13.80
2023-05-18T19:12:34.625Z,13.70
2023-05-18T19:15:03.369Z,13.70
2023-05-18T19:17:32.321Z,13.60
2023-05-18T19:20:01.122Z,13.60
2023-05-18T19:22:29.801Z,13.50
2023-05-18T19:24:58.620Z,13.50
2023-05-18T19:27:29.205Z,13.50
2023-05-18T19:29:59.115Z,13.50
2023-05-18T19:32:29.951Z,13.50
2023-05-18T19:34:58.934Z,13.50
2023-05-18T19:37:27.668Z,13.40
2023-05-18T19:39:56.418Z,13.30
2023-05-18T19:42:25.151Z,13.30
2023-05-18T19:44:55.480Z,13.30
2023-05-18T19:47:24.431Z,13.20
2023-05-18T19:49:53.378Z,13.20
2023-05-18T19:52:22.281Z,13.20
2023-05-18T19:54:51.312Z,13.20
2023-05-18T19:57:21.462Z,13.10
2023-05-18T19:59:50.238Z,13.10
2023-05-18T20:02:20.572Z,13.10
2023-05-18T20:04:50.231Z,13.00
2023-05-18T20:07:20.692Z,13.00
2023-05-18T20:09:50.041Z,13.00
2023-05-18T20:12:19.789Z,13.00
2023-05-18T20:14:48.809Z,12.90
2023-05-18T20:17:17.761Z,12.90
2023-05-18T20:19:51.006Z,12.70
2023-05-18T20:22:20.051Z,12.70
2023-05-18T20:24:49.019Z,12.70
2023-05-18T20:27:17.981Z,12.60
2023-05-18T20:29:46.893Z,12.60
2023-05-18T20:32:15.796Z,12.60
2023-05-18T20:34:44.692Z,12.50
2023-05-18T20:37:15.242Z,12.50
2023-05-18T20:39:50.892Z,12.50
2023-05-18T20:42:22.168Z,12.40
2023-05-18T20:44:52.784Z,12.40
2023-05-18T20:47:21.550Z,12.40
2023-05-18T20:49:50.563Z,12.40
2023-05-18T20:52:20.731Z,12.30
2023-05-18T20:54:49.667Z,12.30
2023-05-18T20:57:18.863Z,12.30
2023-05-18T20:59:48.197Z,12.30
2023-05-18T21:02:17.166Z,12.30
2023-05-18T21:04:47.016Z,12.20
2023-05-18T21:07:16.746Z,12.20
2023-05-18T21:09:47.124Z,12.20
2023-05-18T21:12:16.219Z,12.10
2023-05-18T21:14:45.163Z,12.10
2023-05-18T21:17:15.446Z,12.00
2023-05-18T21:19:44.244Z,12.00
2023-05-18T21:22:13.220Z,12.00
2023-05-18T21:24:42.030Z,11.90
2023-05-18T21:27:12.495Z,11.90
2023-05-18T21:29:41.216Z,11.80
2023-05-18T21:32:10.469Z,11.80
2023-05-18T21:34:41.219Z,11.80
2023-05-18T21:37:12.187Z,11.80
2023-05-18T21:39:42.198Z,11.70
2023-05-18T21:42:12.492Z,11.70
2023-05-18T21:44:41.659Z,11.60
2023-05-18T21:47:10.582Z,11.50
2023-05-18T21:49:39.428Z,11.50
2023-05-18T21:52:08.423Z,11.50
2023-05-18T21:54:37.837Z,11.50
2023-05-18T21:57:07.235Z,11.50
2023-05-18T21:59:37.526Z,11.50
2023-05-18T22:02:06.470Z,11.50
2023-05-18T22:04:35.347Z,11.40
2023-05-18T22:07:04.368Z,11.30
2023-05-18T22:09:33.172Z,11.20
2023-05-18T22:12:01.904Z,11.20
2023-05-18T22:14:31.776Z,11.10
2023-05-18T22:17:02.333Z,11.10
2023-05-18T22:19:31.447Z,11.10
2023-05-18T22:22:01.569Z,11.00
2023-05-18T22:24:30.554Z,11.00
2023-05-18T22:26:59.527Z,10.90
2023-05-18T22:29:28.343Z,10.90
2023-05-18T22:31:57.266Z,10.80
2023-05-18T22:34:27.533Z,10.70
2023-05-18T22:36:56.255Z,10.80
2023-05-18T22:39:27.909Z,10.60
2023-05-18T22:41:56.912Z,10.60
2023-05-18T22:44:25.608Z,10.60
2023-05-18T22:46:54.515Z,10.60
2023-05-18T22:49:23.467Z,10.50
2023-05-18T22:51:53.943Z,10.50
2023-05-18T22:54:23.260Z,10.50
2023-05-18T22:56:52.111Z,10.60
2023-05-18T22:59:20.918Z,10.50
2023-05-18T23:01:54.673Z,10.60
2023-05-18T23:04:23.645Z,10.60
2023-05-18T23:06:54.282Z,10.60
2023-05-18T23:09:23.118Z,10.50
2023-05-18T23:11:52.555Z,10.50
2023-05-18T23:14:22.298Z,10.50
2023-05-18T23:16:51.160Z,10.40
2023-05-18T23:19:19.974Z,10.30
2023-05-18T23:21:48.827Z,10.10
2023-05-18T23:24:19.165Z,9.90
2023-05-18T23:26:47.745Z,9.80
2023-05-18T23:29:16.656Z,9.60
2023-05-18T23:31:45.355Z,9.40
2023-05-18T23:34:14.666Z,9.30
2023-05-18T23:36:44.265Z,9.20
2023-05-18T23:39:13.639Z,9.20
2023-05-18T23:41:45.120Z,9.10
2023-05-18T23:44:14.531Z,9.10
2023-05-18T23:46:43.832Z,9.00
2023-05-18T23:49:13.007Z,8.90
2023-05-18T23:51:44.417Z,8.90
2023-05-18T23:54:13.809Z,8.90
2023-05-18T23:56:44.832Z,8.90
2023-05-18T23:59:16.078Z,8.90
